sensor_id;sensor_type;location;lat;lon;timestamp;P1;durP1;ratioP1;P2;durP2;ratioP2
64826;SDS011;51265;53.972;12.286;2023-02-11T00:00:52;35.85;;;14.85;;
64826;SDS011;51265;53.972;12.286;2023-02-11T00:03:18;34.75;;;14.55;;
64826;SDS011;51265;53.972;12.286;2023-02-11T00:05:44;35.17;;;16.90;;
64826;SDS011;51265;53.972;12.286;2023-02-11T00:08:10;34.63;;;16.35;;
64826;SDS011;51265;53.972;12.286;2023-02-11T00:10:41;35.38;;;16.52;;
64826;SDS011;51265;53.972;12.286;2023-02-11T00:13:11;37.00;;;15.68;;
64826;SDS011;51265;53.972;12.286;2023-02-11T00:15:37;32.22;;;14.75;;
64826;SDS011;51265;53.972;12.286;2023-02-11T00:18:03;33.60;;;16.42;;
64826;SDS011;51265;53.972;12.286;2023-02-11T00:20:29;30.63;;;16.20;;
64826;SDS011;51265;53.972;12.286;2023-02-11T00:22:56;35.35;;;15.95;;
64826;SDS011;51265;53.972;12.286;2023-02-11T00:25:22;35.08;;;16.00;;
64826;SDS011;51265;53.972;12.286;2023-02-11T00:27:48;36.30;;;17.60;;
64826;SDS011;51265;53.972;12.286;2023-02-11T00:30:14;36.15;;;17.40;;
64826;SDS011;51265;53.972;12.286;2023-02-11T00:32:41;34.40;;;17.33;;
64826;SDS011;51265;53.972;12.286;2023-02-11T00:35:07;34.53;;;16.95;;
64826;SDS011;51265;53.972;12.286;2023-02-11T00:37:33;37.25;;;16.55;;
64826;SDS011;51265;53.972;12.286;2023-02-11T00:40:02;38.83;;;17.63;;
64826;SDS011;51265;53.972;12.286;2023-02-11T00:42:32;34.75;;;17.55;;
64826;SDS011;51265;53.972;12.286;2023-02-11T00:45:00;36.78;;;17.83;;
64826;SDS011;51265;53.972;12.286;2023-02-11T00:47:27;35.50;;;18.15;;
64826;SDS011;51265;53.972;12.286;2023-02-11T00:49:53;36.08;;;17.52;;
64826;SDS011;51265;53.972;12.286;2023-02-11T00:52:20;41.80;;;18.02;;
64826;SDS011;51265;53.972;12.286;2023-02-11T00:54:46;35.35;;;17.52;;
64826;SDS011;51265;53.972;12.286;2023-02-11T00:57:12;33.70;;;17.58;;
64826;SDS011;51265;53.972;12.286;2023-02-11T00:59:39;38.95;;;18.30;;
64826;SDS011;51265;53.972;12.286;2023-02-11T01:02:05;37.67;;;18.45;;
64826;SDS011;51265;53.972;12.286;2023-02-11T01:04:31;37.70;;;18.02;;
64826;SDS011;51265;53.972;12.286;2023-02-11T01:06:57;35.47;;;18.38;;
64826;SDS011;51265;53.972;12.286;2023-02-11T01:09:24;37.88;;;19.20;;
64826;SDS011;51265;53.972;12.286;2023-02-11T01:11:51;40.55;;;19.73;;
64826;SDS011;51265;53.972;12.286;2023-02-11T01:14:17;41.97;;;19.27;;
64826;SDS011;51265;53.972;12.286;2023-02-11T01:16:43;37.15;;;19.90;;
64826;SDS011;51265;53.972;12.286;2023-02-11T01:19:09;44.35;;;19.52;;
64826;SDS011;51265;53.972;12.286;2023-02-11T01:21:36;38.17;;;18.67;;
64826;SDS011;51265;53.972;12.286;2023-02-11T01:24:02;36.78;;;18.25;;
64826;SDS011;51265;53.972;12.286;2023-02-11T01:26:28;36.85;;;18.50;;
64826;SDS011;51265;53.972;12.286;2023-02-11T01:28:56;37.35;;;19.02;;
64826;SDS011;51265;53.972;12.286;2023-02-11T01:31:26;36.25;;;18.92;;
64826;SDS011;51265;53.972;12.286;2023-02-11T01:33:53;35.08;;;18.77;;
64826;SDS011;51265;53.972;12.286;2023-02-11T01:36:21;37.58;;;18.80;;
64826;SDS011;51265;53.972;12.286;2023-02-11T01:38:47;31.73;;;17.85;;
64826;SDS011;51265;53.972;12.286;2023-02-11T01:41:14;42.67;;;20.80;;
64826;SDS011;51265;53.972;12.286;2023-02-11T01:43:45;37.17;;;18.75;;
64826;SDS011;51265;53.972;12.286;2023-02-11T01:49:00;36.80;;;18.15;;
64826;SDS011;51265;53.972;12.286;2023-02-11T01:51:33;39.40;;;18.83;;
64826;SDS011;51265;53.972;12.286;2023-02-11T01:54:04;36.35;;;17.98;;
64826;SDS011;51265;53.972;12.286;2023-02-11T01:56:51;41.75;;;18.38;;
64826;SDS011;51265;53.972;12.286;2023-02-11T02:05:25;36.45;;;18.13;;
64826;SDS011;51265;53.972;12.286;2023-02-11T02:08:05;39.50;;;19.50;;
64826;SDS011;51265;53.972;12.286;2023-02-11T02:10:40;34.60;;;18.42;;
64826;SDS011;51265;53.972;12.286;2023-02-11T02:13:09;46.97;;;20.48;;
64826;SDS011;51265;53.972;12.286;2023-02-11T02:15:36;34.17;;;17.95;;
64826;SDS011;51265;53.972;12.286;2023-02-11T02:26:02;36.83;;;18.60;;
64826;SDS011;51265;53.972;12.286;2023-02-11T02:32:10;37.25;;;19.05;;
64826;SDS011;51265;53.972;12.286;2023-02-11T02:35:46;42.20;;;18.80;;
64826;SDS011;51265;53.972;12.286;2023-02-11T02:38:11;39.95;;;20.50;;
64826;SDS011;51265;53.972;12.286;2023-02-11T02:40:55;41.70;;;19.70;;
64826;SDS011;51265;53.972;12.286;2023-02-11T02:43:26;37.30;;;19.10;;
64826;SDS011;51265;53.972;12.286;2023-02-11T02:45:53;40.20;;;20.77;;
64826;SDS011;51265;53.972;12.286;2023-02-11T02:48:27;43.83;;;21.10;;
64826;SDS011;51265;53.972;12.286;2023-02-11T02:51:04;45.10;;;21.85;;
64826;SDS011;51265;53.972;12.286;2023-02-11T02:56:27;45.47;;;22.05;;
64826;SDS011;51265;53.972;12.286;2023-02-11T02:59:08;45.38;;;22.73;;
64826;SDS011;51265;53.972;12.286;2023-02-11T03:04:24;45.47;;;22.70;;
64826;SDS011;51265;53.972;12.286;2023-02-11T03:07:47;52.63;;;22.67;;
64826;SDS011;51265;53.972;12.286;2023-02-11T03:10:05;50.53;;;23.92;;
64826;SDS011;51265;53.972;12.286;2023-02-11T03:12:36;50.65;;;23.92;;
64826;SDS011;51265;53.972;12.286;2023-02-11T03:15:04;53.30;;;23.60;;
64826;SDS011;51265;53.972;12.286;2023-02-11T03:17:32;49.38;;;24.80;;
64826;SDS011;51265;53.972;12.286;2023-02-11T03:19:59;50.17;;;24.67;;
64826;SDS011;51265;53.972;12.286;2023-02-11T03:22:31;55.13;;;24.00;;
64826;SDS011;51265;53.972;12.286;2023-02-11T03:25:02;42.25;;;23.63;;
64826;SDS011;51265;53.972;12.286;2023-02-11T03:27:40;49.47;;;23.90;;
64826;SDS011;51265;53.972;12.286;2023-02-11T03:30:24;50.00;;;23.42;;
64826;SDS011;51265;53.972;12.286;2023-02-11T03:32:56;49.05;;;23.35;;
64826;SDS011;51265;53.972;12.286;2023-02-11T03:36:14;52.53;;;24.25;;
64826;SDS011;51265;53.972;12.286;2023-02-11T03:38:30;56.97;;;24.30;;
64826;SDS011;51265;53.972;12.286;2023-02-11T03:41:00;53.95;;;24.92;;
64826;SDS011;51265;53.972;12.286;2023-02-11T03:43:33;52.67;;;24.83;;
64826;SDS011;51265;53.972;12.286;2023-02-11T03:46:03;54.95;;;23.80;;
64826;SDS011;51265;53.972;12.286;2023-02-11T03:48:35;47.15;;;23.23;;
64826;SDS011;51265;53.972;12.286;2023-02-11T03:51:06;58.10;;;24.85;;
64826;SDS011;51265;53.972;12.286;2023-02-11T03:53:34;44.75;;;23.73;;
64826;SDS011;51265;53.972;12.286;2023-02-11T03:56:03;48.42;;;24.13;;
64826;SDS011;51265;53.972;12.286;2023-02-11T03:58:32;56.97;;;23.42;;
64826;SDS011;51265;53.972;12.286;2023-02-11T04:00:58;53.72;;;25.40;;
64826;SDS011;51265;53.972;12.286;2023-02-11T04:03:27;54.00;;;24.90;;
64826;SDS011;51265;53.972;12.286;2023-02-11T04:05:53;55.10;;;23.67;;
64826;SDS011;51265;53.972;12.286;2023-02-11T04:08:20;53.03;;;24.33;;
64826;SDS011;51265;53.972;12.286;2023-02-11T04:10:46;55.90;;;24.95;;
64826;SDS011;51265;53.972;12.286;2023-02-11T04:13:12;56.22;;;25.98;;
64826;SDS011;51265;53.972;12.286;2023-02-11T04:15:39;57.33;;;26.02;;
64826;SDS011;51265;53.972;12.286;2023-02-11T04:18:06;52.03;;;26.15;;
64826;SDS011;51265;53.972;12.286;2023-02-11T04:20:32;70.95;;;26.80;;
64826;SDS011;51265;53.972;12.286;2023-02-11T04:22:58;64.30;;;26.75;;
64826;SDS011;51265;53.972;12.286;2023-02-11T04:25:24;51.75;;;25.65;;
64826;SDS011;51265;53.972;12.286;2023-02-11T04:27:51;57.47;;;27.23;;
64826;SDS011;51265;53.972;12.286;2023-02-11T04:30:17;58.45;;;25.92;;
64826;SDS011;51265;53.972;12.286;2023-02-11T04:32:43;59.60;;;27.35;;
64826;SDS011;51265;53.972;12.286;2023-02-11T04:35:09;64.30;;;25.25;;
64826;SDS011;51265;53.972;12.286;2023-02-11T04:37:35;54.63;;;24.48;;
64826;SDS011;51265;53.972;12.286;2023-02-11T04:40:02;58.17;;;25.13;;
64826;SDS011;51265;53.972;12.286;2023-02-11T04:42:28;57.90;;;25.05;;
64826;SDS011;51265;53.972;12.286;2023-02-11T04:44:54;68.20;;;27.85;;
64826;SDS011;51265;53.972;12.286;2023-02-11T04:47:21;53.70;;;25.20;;
64826;SDS011;51265;53.972;12.286;2023-02-11T04:49:47;53.90;;;25.25;;
64826;SDS011;51265;53.972;12.286;2023-02-11T04:52:27;51.95;;;24.13;;
64826;SDS011;51265;53.972;12.286;2023-02-11T04:54:54;57.88;;;25.38;;
64826;SDS011;51265;53.972;12.286;2023-02-11T04:57:20;59.22;;;24.85;;
64826;SDS011;51265;53.972;12.286;2023-02-11T04:59:46;53.03;;;23.17;;
64826;SDS011;51265;53.972;12.286;2023-02-11T05:02:13;53.95;;;24.60;;
64826;SDS011;51265;53.972;12.286;2023-02-11T05:04:39;60.78;;;24.30;;
64826;SDS011;51265;53.972;12.286;2023-02-11T05:07:05;55.38;;;24.13;;
64826;SDS011;51265;53.972;12.286;2023-02-11T05:09:31;57.00;;;24.02;;
64826;SDS011;51265;53.972;12.286;2023-02-11T05:11:58;60.53;;;26.17;;
64826;SDS011;51265;53.972;12.286;2023-02-11T05:14:24;51.55;;;24.55;;
64826;SDS011;51265;53.972;12.286;2023-02-11T05:16:50;53.22;;;24.30;;
64826;SDS011;51265;53.972;12.286;2023-02-11T05:19:16;56.78;;;23.92;;
64826;SDS011;51265;53.972;12.286;2023-02-11T05:21:42;53.67;;;23.65;;
64826;SDS011;51265;53.972;12.286;2023-02-11T05:24:09;59.35;;;24.30;;
64826;SDS011;51265;53.972;12.286;2023-02-11T05:26:35;53.47;;;23.33;;
64826;SDS011;51265;53.972;12.286;2023-02-11T05:29:02;56.67;;;23.70;;
64826;SDS011;51265;53.972;12.286;2023-02-11T05:31:28;52.28;;;22.73;;
64826;SDS011;51265;53.972;12.286;2023-02-11T05:33:54;55.95;;;24.25;;
64826;SDS011;51265;53.972;12.286;2023-02-11T05:36:20;53.47;;;24.48;;
64826;SDS011;51265;53.972;12.286;2023-02-11T05:38:47;59.30;;;25.08;;
64826;SDS011;51265;53.972;12.286;2023-02-11T05:41:13;55.92;;;24.65;;
64826;SDS011;51265;53.972;12.286;2023-02-11T05:43:39;58.63;;;24.35;;
64826;SDS011;51265;53.972;12.286;2023-02-11T05:46:06;56.00;;;25.05;;
64826;SDS011;51265;53.972;12.286;2023-02-11T05:48:32;50.80;;;22.88;;
64826;SDS011;51265;53.972;12.286;2023-02-11T05:50:58;62.70;;;24.20;;
64826;SDS011;51265;53.972;12.286;2023-02-11T05:53:24;48.65;;;22.88;;
64826;SDS011;51265;53.972;12.286;2023-02-11T05:55:51;45.88;;;20.88;;
64826;SDS011;51265;53.972;12.286;2023-02-11T05:58:17;52.15;;;23.27;;
64826;SDS011;51265;53.972;12.286;2023-02-11T06:00:43;50.17;;;20.23;;
64826;SDS011;51265;53.972;12.286;2023-02-11T06:03:09;50.65;;;20.50;;
64826;SDS011;51265;53.972;12.286;2023-02-11T06:05:36;42.00;;;18.63;;
64826;SDS011;51265;53.972;12.286;2023-02-11T06:08:02;41.85;;;18.20;;
64826;SDS011;51265;53.972;12.286;2023-02-11T06:10:28;37.60;;;17.42;;
64826;SDS011;51265;53.972;12.286;2023-02-11T06:12:55;37.40;;;17.15;;
64826;SDS011;51265;53.972;12.286;2023-02-11T06:15:21;41.08;;;16.83;;
64826;SDS011;51265;53.972;12.286;2023-02-11T06:17:47;36.70;;;17.25;;
64826;SDS011;51265;53.972;12.286;2023-02-11T06:20:13;34.67;;;16.92;;
64826;SDS011;51265;53.972;12.286;2023-02-11T06:22:40;33.95;;;15.55;;
64826;SDS011;51265;53.972;12.286;2023-02-11T06:25:06;35.58;;;16.17;;
64826;SDS011;51265;53.972;12.286;2023-02-11T06:27:32;31.95;;;16.02;;
64826;SDS011;51265;53.972;12.286;2023-02-11T06:29:58;35.67;;;16.35;;
64826;SDS011;51265;53.972;12.286;2023-02-11T06:32:26;37.03;;;18.08;;
64826;SDS011;51265;53.972;12.286;2023-02-11T06:34:53;35.92;;;16.52;;
64826;SDS011;51265;53.972;12.286;2023-02-11T06:37:19;34.20;;;17.10;;
64826;SDS011;51265;53.972;12.286;2023-02-11T06:39:45;39.60;;;17.02;;
64826;SDS011;51265;53.972;12.286;2023-02-11T06:42:11;37.67;;;16.88;;
64826;SDS011;51265;53.972;12.286;2023-02-11T06:44:38;35.35;;;16.63;;
64826;SDS011;51265;53.972;12.286;2023-02-11T06:47:04;38.85;;;19.50;;
64826;SDS011;51265;53.972;12.286;2023-02-11T06:49:30;42.80;;;17.80;;
64826;SDS011;51265;53.972;12.286;2023-02-11T06:51:56;47.53;;;18.85;;
64826;SDS011;51265;53.972;12.286;2023-02-11T06:54:23;35.90;;;17.55;;
64826;SDS011;51265;53.972;12.286;2023-02-11T06:56:49;46.72;;;18.42;;
64826;SDS011;51265;53.972;12.286;2023-02-11T06:59:18;38.85;;;18.17;;
64826;SDS011;51265;53.972;12.286;2023-02-11T07:01:47;40.83;;;19.23;;
64826;SDS011;51265;53.972;12.286;2023-02-11T07:04:14;42.88;;;18.92;;
64826;SDS011;51265;53.972;12.286;2023-02-11T07:06:40;39.85;;;19.50;;
64826;SDS011;51265;53.972;12.286;2023-02-11T07:09:06;48.85;;;20.52;;
64826;SDS011;51265;53.972;12.286;2023-02-11T07:11:33;46.97;;;19.67;;
64826;SDS011;51265;53.972;12.286;2023-02-11T07:14:01;50.58;;;19.70;;
64826;SDS011;51265;53.972;12.286;2023-02-11T07:16:31;45.97;;;19.70;;
64826;SDS011;51265;53.972;12.286;2023-02-11T07:18:57;48.30;;;18.85;;
64826;SDS011;51265;53.972;12.286;2023-02-11T07:21:24;42.53;;;17.38;;
64826;SDS011;51265;53.972;12.286;2023-02-11T07:23:50;45.78;;;17.05;;
64826;SDS011;51265;53.972;12.286;2023-02-11T07:26:18;45.10;;;18.00;;
64826;SDS011;51265;53.972;12.286;2023-02-11T07:28:48;41.63;;;17.25;;
64826;SDS011;51265;53.972;12.286;2023-02-11T07:31:16;40.80;;;18.00;;
64826;SDS011;51265;53.972;12.286;2023-02-11T07:33:44;44.03;;;17.10;;
64826;SDS011;51265;53.972;12.286;2023-02-11T07:36:12;38.67;;;17.73;;
64826;SDS011;51265;53.972;12.286;2023-02-11T07:38:39;40.85;;;17.17;;
64826;SDS011;51265;53.972;12.286;2023-02-11T07:41:07;44.65;;;16.42;;
64826;SDS011;51265;53.972;12.286;2023-02-11T07:43:35;34.55;;;15.23;;
64826;SDS011;51265;53.972;12.286;2023-02-11T07:46:02;40.97;;;16.60;;
64826;SDS011;51265;53.972;12.286;2023-02-11T07:48:30;33.08;;;14.50;;
64826;SDS011;51265;53.972;12.286;2023-02-11T07:51:03;40.22;;;14.23;;
64826;SDS011;51265;53.972;12.286;2023-02-11T07:53:34;38.28;;;13.73;;
64826;SDS011;51265;53.972;12.286;2023-02-11T07:56:01;35.70;;;13.55;;
64826;SDS011;51265;53.972;12.286;2023-02-11T07:58:31;31.25;;;12.70;;
64826;SDS011;51265;53.972;12.286;2023-02-11T08:01:05;30.20;;;13.25;;
64826;SDS011;51265;53.972;12.286;2023-02-11T08:03:33;34.55;;;11.50;;
64826;SDS011;51265;53.972;12.286;2023-02-11T08:06:03;26.10;;;11.43;;
64826;SDS011;51265;53.972;12.286;2023-02-11T08:08:31;30.48;;;11.80;;
64826;SDS011;51265;53.972;12.286;2023-02-11T08:10:58;29.73;;;10.60;;
64826;SDS011;51265;53.972;12.286;2023-02-11T08:13:29;30.20;;;11.18;;
64826;SDS011;51265;53.972;12.286;2023-02-11T08:15:56;23.00;;;10.85;;
64826;SDS011;51265;53.972;12.286;2023-02-11T08:18:22;22.08;;;9.70;;
64826;SDS011;51265;53.972;12.286;2023-02-11T08:20:48;28.10;;;11.57;;
64826;SDS011;51265;53.972;12.286;2023-02-11T08:23:15;20.45;;;9.27;;
64826;SDS011;51265;53.972;12.286;2023-02-11T08:25:41;24.92;;;9.75;;
64826;SDS011;51265;53.972;12.286;2023-02-11T08:28:07;22.55;;;8.95;;
64826;SDS011;51265;53.972;12.286;2023-02-11T08:30:34;22.73;;;10.05;;
64826;SDS011;51265;53.972;12.286;2023-02-11T08:33:00;26.27;;;9.88;;
64826;SDS011;51265;53.972;12.286;2023-02-11T08:35:27;20.08;;;8.32;;
64826;SDS011;51265;53.972;12.286;2023-02-11T08:37:53;24.10;;;9.15;;
64826;SDS011;51265;53.972;12.286;2023-02-11T08:40:19;24.00;;;9.35;;
64826;SDS011;51265;53.972;12.286;2023-02-11T08:42:46;19.45;;;8.85;;
64826;SDS011;51265;53.972;12.286;2023-02-11T08:45:12;21.38;;;9.23;;
64826;SDS011;51265;53.972;12.286;2023-02-11T08:47:38;23.00;;;9.93;;
64826;SDS011;51265;53.972;12.286;2023-02-11T08:50:04;23.83;;;9.63;;
64826;SDS011;51265;53.972;12.286;2023-02-11T08:52:31;21.75;;;9.63;;
64826;SDS011;51265;53.972;12.286;2023-02-11T08:54:57;22.20;;;9.52;;
64826;SDS011;51265;53.972;12.286;2023-02-11T08:57:23;25.77;;;9.68;;
64826;SDS011;51265;53.972;12.286;2023-02-11T08:59:49;21.30;;;9.48;;
64826;SDS011;51265;53.972;12.286;2023-02-11T09:02:16;21.15;;;9.60;;
64826;SDS011;51265;53.972;12.286;2023-02-11T09:04:42;19.20;;;10.35;;
64826;SDS011;51265;53.972;12.286;2023-02-11T09:07:08;22.13;;;10.00;;
64826;SDS011;51265;53.972;12.286;2023-02-11T09:09:34;27.77;;;9.98;;
64826;SDS011;51265;53.972;12.286;2023-02-11T09:12:00;24.17;;;10.43;;
64826;SDS011;51265;53.972;12.286;2023-02-11T09:14:26;29.27;;;10.98;;
64826;SDS011;51265;53.972;12.286;2023-02-11T09:16:52;33.95;;;11.90;;
64826;SDS011;51265;53.972;12.286;2023-02-11T09:19:19;27.95;;;11.60;;
64826;SDS011;51265;53.972;12.286;2023-02-11T09:21:46;23.20;;;10.82;;
64826;SDS011;51265;53.972;12.286;2023-02-11T09:24:12;31.52;;;13.18;;
64826;SDS011;51265;53.972;12.286;2023-02-11T09:26:39;31.83;;;12.85;;
64826;SDS011;51265;53.972;12.286;2023-02-11T09:29:08;28.80;;;12.57;;
64826;SDS011;51265;53.972;12.286;2023-02-11T09:31:34;25.80;;;11.30;;
64826;SDS011;51265;53.972;12.286;2023-02-11T09:34:01;28.13;;;11.35;;
64826;SDS011;51265;53.972;12.286;2023-02-11T09:36:30;29.55;;;11.10;;
64826;SDS011;51265;53.972;12.286;2023-02-11T09:38:59;25.27;;;12.30;;
64826;SDS011;51265;53.972;12.286;2023-02-11T09:44:22;21.95;;;10.35;;
64826;SDS011;51265;53.972;12.286;2023-02-11T09:46:54;24.73;;;9.75;;
64826;SDS011;51265;53.972;12.286;2023-02-11T09:49:33;21.60;;;9.57;;
64826;SDS011;51265;53.972;12.286;2023-02-11T09:55:32;21.52;;;8.85;;
64826;SDS011;51265;53.972;12.286;2023-02-11T10:07:06;16.98;;;7.25;;
64826;SDS011;51265;53.972;12.286;2023-02-11T10:15:30;14.45;;;7.38;;
64826;SDS011;51265;53.972;12.286;2023-02-11T10:18:27;16.15;;;7.47;;
64826;SDS011;51265;53.972;12.286;2023-02-11T10:23:44;18.67;;;7.18;;
64826;SDS011;51265;53.972;12.286;2023-02-11T10:26:15;18.27;;;7.82;;
64826;SDS011;51265;53.972;12.286;2023-02-11T10:28:47;12.90;;;6.65;;
64826;SDS011;51265;53.972;12.286;2023-02-11T10:34:15;20.65;;;8.32;;
64826;SDS011;51265;53.972;12.286;2023-02-11T10:37:01;20.10;;;8.40;;
64826;SDS011;51265;53.972;12.286;2023-02-11T10:39:27;17.90;;;9.00;;
64826;SDS011;51265;53.972;12.286;2023-02-11T10:41:55;20.33;;;8.27;;
64826;SDS011;51265;53.972;12.286;2023-02-11T10:44:36;17.13;;;7.85;;
64826;SDS011;51265;53.972;12.286;2023-02-11T10:47:08;20.05;;;8.70;;
64826;SDS011;51265;53.972;12.286;2023-02-11T10:49:46;13.57;;;6.53;;
64826;SDS011;51265;53.972;12.286;2023-02-11T10:57:51;10.93;;;5.38;;
64826;SDS011;51265;53.972;12.286;2023-02-11T11:02:58;17.23;;;7.13;;
64826;SDS011;51265;53.972;12.286;2023-02-11T11:05:31;16.42;;;5.78;;
64826;SDS011;51265;53.972;12.286;2023-02-11T11:08:01;15.57;;;6.65;;
64826;SDS011;51265;53.972;12.286;2023-02-11T11:10:39;16.20;;;6.65;;
64826;SDS011;51265;53.972;12.286;2023-02-11T11:18:42;13.10;;;5.53;;
64826;SDS011;51265;53.972;12.286;2023-02-11T11:26:45;14.32;;;5.10;;
64826;SDS011;51265;53.972;12.286;2023-02-11T11:29:33;12.48;;;5.47;;
64826;SDS011;51265;53.972;12.286;2023-02-11T11:32:04;12.45;;;5.45;;
64826;SDS011;51265;53.972;12.286;2023-02-11T11:34:55;17.65;;;5.63;;
64826;SDS011;51265;53.972;12.286;2023-02-11T11:37:44;12.90;;;5.53;;
64826;SDS011;51265;53.972;12.286;2023-02-11T11:42:40;20.10;;;5.90;;
64826;SDS011;51265;53.972;12.286;2023-02-11T11:47:42;14.38;;;6.05;;
64826;SDS011;51265;53.972;12.286;2023-02-11T11:55:47;12.90;;;5.82;;
64826;SDS011;51265;53.972;12.286;2023-02-11T11:58:21;17.15;;;6.60;;
64826;SDS011;51265;53.972;12.286;2023-02-11T12:09:43;16.98;;;5.43;;
64826;SDS011;51265;53.972;12.286;2023-02-11T12:23:46;15.13;;;5.30;;
64826;SDS011;51265;53.972;12.286;2023-02-11T12:26:20;12.70;;;5.20;;
64826;SDS011;51265;53.972;12.286;2023-02-11T12:40:34;18.85;;;4.60;;
64826;SDS011;51265;53.972;12.286;2023-02-11T12:43:20;14.88;;;4.80;;
64826;SDS011;51265;53.972;12.286;2023-02-11T12:56:36;10.75;;;3.60;;
64826;SDS011;51265;53.972;12.286;2023-02-11T12:59:04;12.20;;;4.40;;
64826;SDS011;51265;53.972;12.286;2023-02-11T13:01:39;15.48;;;3.10;;
64826;SDS011;51265;53.972;12.286;2023-02-11T13:04:14;10.60;;;3.10;;
64826;SDS011;51265;53.972;12.286;2023-02-11T13:06:50;10.68;;;2.75;;
64826;SDS011;51265;53.972;12.286;2023-02-11T13:09:23;10.30;;;2.75;;
64826;SDS011;51265;53.972;12.286;2023-02-11T13:11:54;9.07;;;2.30;;
64826;SDS011;51265;53.972;12.286;2023-02-11T13:14:31;8.23;;;2.15;;
64826;SDS011;51265;53.972;12.286;2023-02-11T13:17:03;10.45;;;1.95;;
64826;SDS011;51265;53.972;12.286;2023-02-11T13:29:25;7.40;;;1.90;;
64826;SDS011;51265;53.972;12.286;2023-02-11T13:32:11;9.65;;;2.13;;
64826;SDS011;51265;53.972;12.286;2023-02-11T13:37:31;10.15;;;1.90;;
64826;SDS011;51265;53.972;12.286;2023-02-11T13:42:33;12.10;;;1.90;;
64826;SDS011;51265;53.972;12.286;2023-02-11T13:45:26;8.25;;;1.73;;
64826;SDS011;51265;53.972;12.286;2023-02-11T13:47:57;7.82;;;1.70;;
64826;SDS011;51265;53.972;12.286;2023-02-11T13:50:27;9.97;;;1.73;;
64826;SDS011;51265;53.972;12.286;2023-02-11T13:52:58;9.98;;;1.75;;
64826;SDS011;51265;53.972;12.286;2023-02-11T13:55:26;12.65;;;1.42;;
64826;SDS011;51265;53.972;12.286;2023-02-11T14:14:27;10.65;;;1.60;;
64826;SDS011;51265;53.972;12.286;2023-02-11T14:19:35;8.63;;;1.55;;
64826;SDS011;51265;53.972;12.286;2023-02-11T14:22:12;11.27;;;1.60;;
64826;SDS011;51265;53.972;12.286;2023-02-11T14:24:50;12.70;;;3.03;;
64826;SDS011;51265;53.972;12.286;2023-02-11T14:27:45;14.07;;;2.67;;
64826;SDS011;51265;53.972;12.286;2023-02-11T14:30:43;11.07;;;1.58;;
64826;SDS011;51265;53.972;12.286;2023-02-11T14:41:49;15.18;;;2.67;;
64826;SDS011;51265;53.972;12.286;2023-02-11T14:44:22;10.02;;;2.22;;
64826;SDS011;51265;53.972;12.286;2023-02-11T14:46:52;12.93;;;2.08;;
64826;SDS011;51265;53.972;12.286;2023-02-11T14:49:23;17.15;;;2.05;;
64826;SDS011;51265;53.972;12.286;2023-02-11T14:52:38;12.70;;;1.60;;
64826;SDS011;51265;53.972;12.286;2023-02-11T14:54:48;14.68;;;1.95;;
64826;SDS011;51265;53.972;12.286;2023-02-11T14:57:18;10.75;;;1.70;;
64826;SDS011;51265;53.972;12.286;2023-02-11T14:59:55;10.57;;;1.73;;
64826;SDS011;51265;53.972;12.286;2023-02-11T15:02:27;10.73;;;1.52;;
64826;SDS011;51265;53.972;12.286;2023-02-11T15:07:46;12.98;;;2.15;;
64826;SDS011;51265;53.972;12.286;2023-02-11T15:10:25;25.20;;;3.40;;
64826;SDS011;51265;53.972;12.286;2023-02-11T15:12:52;13.75;;;2.15;;
64826;SDS011;51265;53.972;12.286;2023-02-11T15:15:19;13.80;;;1.98;;
64826;SDS011;51265;53.972;12.286;2023-02-11T15:17:46;11.98;;;1.70;;
64826;SDS011;51265;53.972;12.286;2023-02-11T15:20:21;16.42;;;2.60;;
64826;SDS011;51265;53.972;12.286;2023-02-11T15:22:53;9.88;;;1.85;;
64826;SDS011;51265;53.972;12.286;2023-02-11T15:25:22;10.65;;;2.28;;
64826;SDS011;51265;53.972;12.286;2023-02-11T15:27:50;13.80;;;1.90;;
64826;SDS011;51265;53.972;12.286;2023-02-11T15:32:48;8.00;;;1.83;;
64826;SDS011;51265;53.972;12.286;2023-02-11T15:35:16;13.85;;;1.80;;
64826;SDS011;51265;53.972;12.286;2023-02-11T15:37:43;12.30;;;1.80;;
64826;SDS011;51265;53.972;12.286;2023-02-11T15:40:17;14.55;;;2.28;;
64826;SDS011;51265;53.972;12.286;2023-02-11T15:42:55;13.15;;;2.72;;
64826;SDS011;51265;53.972;12.286;2023-02-11T15:45:30;11.77;;;1.67;;
64826;SDS011;51265;53.972;12.286;2023-02-11T15:48:11;10.20;;;2.05;;
64826;SDS011;51265;53.972;12.286;2023-02-11T15:50:39;14.23;;;1.98;;
64826;SDS011;51265;53.972;12.286;2023-02-11T15:56:09;12.25;;;2.40;;
64826;SDS011;51265;53.972;12.286;2023-02-11T15:58:39;10.13;;;1.73;;
64826;SDS011;51265;53.972;12.286;2023-02-11T16:01:09;12.27;;;1.63;;
64826;SDS011;51265;53.972;12.286;2023-02-11T16:03:36;11.60;;;1.95;;
64826;SDS011;51265;53.972;12.286;2023-02-11T16:09:18;12.02;;;1.85;;
64826;SDS011;51265;53.972;12.286;2023-02-11T16:16:57;9.57;;;1.58;;
64826;SDS011;51265;53.972;12.286;2023-02-11T16:19:27;14.52;;;2.42;;
64826;SDS011;51265;53.972;12.286;2023-02-11T16:21:55;13.65;;;1.92;;
64826;SDS011;51265;53.972;12.286;2023-02-11T16:24:29;7.88;;;1.58;;
64826;SDS011;51265;53.972;12.286;2023-02-11T16:26:59;15.48;;;1.92;;
64826;SDS011;51265;53.972;12.286;2023-02-11T16:29:30;10.45;;;2.00;;
64826;SDS011;51265;53.972;12.286;2023-02-11T16:32:07;14.48;;;2.10;;
64826;SDS011;51265;53.972;12.286;2023-02-11T16:34:35;11.98;;;2.28;;
64826;SDS011;51265;53.972;12.286;2023-02-11T16:37:03;11.20;;;1.85;;
64826;SDS011;51265;53.972;12.286;2023-02-11T16:39:30;17.52;;;2.47;;
64826;SDS011;51265;53.972;12.286;2023-02-11T16:41:56;15.45;;;2.35;;
64826;SDS011;51265;53.972;12.286;2023-02-11T16:44:23;19.42;;;2.53;;
64826;SDS011;51265;53.972;12.286;2023-02-11T16:46:49;15.77;;;2.42;;
64826;SDS011;51265;53.972;12.286;2023-02-11T16:49:39;19.20;;;2.95;;
64826;SDS011;51265;53.972;12.286;2023-02-11T16:52:08;18.60;;;3.47;;
64826;SDS011;51265;53.972;12.286;2023-02-11T16:54:39;16.55;;;2.50;;
64826;SDS011;51265;53.972;12.286;2023-02-11T16:57:21;14.68;;;2.08;;
64826;SDS011;51265;53.972;12.286;2023-02-11T16:59:49;15.90;;;3.15;;
64826;SDS011;51265;53.972;12.286;2023-02-11T17:02:21;14.38;;;3.20;;
64826;SDS011;51265;53.972;12.286;2023-02-11T17:04:53;20.58;;;3.85;;
64826;SDS011;51265;53.972;12.286;2023-02-11T17:07:21;13.23;;;2.70;;
64826;SDS011;51265;53.972;12.286;2023-02-11T17:09:47;18.85;;;2.88;;
64826;SDS011;51265;53.972;12.286;2023-02-11T17:12:13;20.48;;;3.80;;
64826;SDS011;51265;53.972;12.286;2023-02-11T17:14:39;16.73;;;2.47;;
64826;SDS011;51265;53.972;12.286;2023-02-11T17:17:06;20.27;;;2.75;;
64826;SDS011;51265;53.972;12.286;2023-02-11T17:19:32;22.50;;;3.15;;
64826;SDS011;51265;53.972;12.286;2023-02-11T17:21:59;23.75;;;3.78;;
64826;SDS011;51265;53.972;12.286;2023-02-11T17:24:25;18.65;;;3.15;;
64826;SDS011;51265;53.972;12.286;2023-02-11T17:26:51;17.42;;;2.78;;
64826;SDS011;51265;53.972;12.286;2023-02-11T17:29:18;22.67;;;3.50;;
64826;SDS011;51265;53.972;12.286;2023-02-11T17:31:46;20.25;;;3.17;;
64826;SDS011;51265;53.972;12.286;2023-02-11T17:34:13;19.67;;;2.92;;